sensor_id;sensor_type;location;lat;lon;timestamp;temperature;humidity
13405;DHT22;6773;51.192;7.024;2022-12-26T00:00:54;10.70;99.90
13405;DHT22;6773;51.192;7.024;2022-12-26T00:03:20;10.70;99.90
13405;DHT22;6773;51.192;7.024;2022-12-26T00:05:45;10.70;99.90
13405;DHT22;6773;51.192;7.024;2022-12-26T00:08:11;10.70;99.90
13405;DHT22;6773;51.192;7.024;2022-12-26T00:10:36;10.70;99.90
13405;DHT22;6773;51.192;7.024;2022-12-26T00:17:54;10.70;99.90
13405;DHT22;6773;51.192;7.024;2022-12-26T00:20:20;10.70;99.90
13405;DHT22;6773;51.192;7.024;2022-12-26T00:30:04;10.80;99.90
13405;DHT22;6773;51.192;7.024;2022-12-26T00:32:30;10.80;99.90
13405;DHT22;6773;51.192;7.024;2022-12-26T00:34:55;10.80;99.90
13405;DHT22;6773;51.192;7.024;2022-12-26T00:37:21;10.80;99.90
13405;DHT22;6773;51.192;7.024;2022-12-26T00:39:46;10.90;99.90
13405;DHT22;6773;51.192;7.024;2022-12-26T00:42:12;10.90;99.90
13405;DHT22;6773;51.192;7.024;2022-12-26T00:47:04;10.90;99.90
13405;DHT22;6773;51.192;7.024;2022-12-26T00:49:29;10.90;99.90
13405;DHT22;6773;51.192;7.024;2022-12-26T00:51:55;10.90;99.90
13405;DHT22;6773;51.192;7.024;2022-12-26T00:56:46;11.00;99.90
13405;DHT22;6773;51.192;7.024;2022-12-26T00:59:12;11.00;99.90
13405;DHT22;6773;51.192;7.024;2022-12-26T01:01:38;11.00;99.90
13405;DHT22;6773;51.192;7.024;2022-12-26T01:04:03;11.00;99.90
13405;DHT22;6773;51.192;7.024;2022-12-26T01:06:29;11.00;99.90
13405;DHT22;6773;51.192;7.024;2022-12-26T01:08:55;11.00;99.90
13405;DHT22;6773;51.192;7.024;2022-12-26T01:11:21;11.00;99.90
13405;DHT22;6773;51.192;7.024;2022-12-26T01:14:13;11.00;99.90
13405;DHT22;6773;51.192;7.024;2022-12-26T01:16:39;11.00;99.90
13405;DHT22;6773;51.192;7.024;2022-12-26T01:19:06;11.00;99.90
13405;DHT22;6773;51.192;7.024;2022-12-26T01:23:58;11.10;99.90
13405;DHT22;6773;51.192;7.024;2022-12-26T01:26:23;9.90;99.90
13405;DHT22;6773;51.192;7.024;2022-12-26T01:28:50;11.10;99.90
13405;DHT22;6773;51.192;7.024;2022-12-26T01:31:16;11.10;99.90
13405;DHT22;6773;51.192;7.024;2022-12-26T01:33:42;11.10;99.90
13405;DHT22;6773;51.192;7.024;2022-12-26T01:38:34;11.10;99.90
13405;DHT22;6773;51.192;7.024;2022-12-26T01:40:59;11.10;99.90
13405;DHT22;6773;51.192;7.024;2022-12-26T01:44:05;11.10;99.90
13405;DHT22;6773;51.192;7.024;2022-12-26T01:46:44;11.10;99.90
13405;DHT22;6773;51.192;7.024;2022-12-26T01:51:45;11.10;99.90
13405;DHT22;6773;51.192;7.024;2022-12-26T01:54:12;11.00;99.90
13405;DHT22;6773;51.192;7.024;2022-12-26T01:56:41;11.10;99.90
13405;DHT22;6773;51.192;7.024;2022-12-26T01:59:16;11.10;99.90
13405;DHT22;6773;51.192;7.024;2022-12-26T02:01:44;11.00;99.90
13405;DHT22;6773;51.192;7.024;2022-12-26T02:04:15;11.00;99.90
13405;DHT22;6773;51.192;7.024;2022-12-26T02:07:02;10.90;99.90
13405;DHT22;6773;51.192;7.024;2022-12-26T02:09:28;11.00;99.90
13405;DHT22;6773;51.192;7.024;2022-12-26T02:12:06;11.00;99.90
13405;DHT22;6773;51.192;7.024;2022-12-26T02:14:33;11.00;99.90
13405;DHT22;6773;51.192;7.024;2022-12-26T02:16:59;10.90;99.90
13405;DHT22;6773;51.192;7.024;2022-12-26T02:24:49;10.80;99.90
13405;DHT22;6773;51.192;7.024;2022-12-26T02:27:49;10.80;99.90
13405;DHT22;6773;51.192;7.024;2022-12-26T02:41:14;10.70;99.90
13405;DHT22;6773;51.192;7.024;2022-12-26T02:44:21;10.70;99.90
13405;DHT22;6773;51.192;7.024;2022-12-26T02:47:13;10.60;99.90
13405;DHT22;6773;51.192;7.024;2022-12-26T02:49:42;10.60;99.90
13405;DHT22;6773;51.192;7.024;2022-12-26T02:55:37;10.40;99.90
13405;DHT22;6773;51.192;7.024;2022-12-26T02:58:41;10.40;99.90
13405;DHT22;6773;51.192;7.024;2022-12-26T03:01:33;10.40;99.90
13405;DHT22;6773;51.192;7.024;2022-12-26T03:04:21;10.40;99.90
13405;DHT22;6773;51.192;7.024;2022-12-26T03:07:16;10.30;99.90
13405;DHT22;6773;51.192;7.024;2022-12-26T03:10:06;10.30;99.90
13405;DHT22;6773;51.192;7.024;2022-12-26T03:13:10;10.30;99.90
13405;DHT22;6773;51.192;7.024;2022-12-26T03:16:00;10.30;99.90
13405;DHT22;6773;51.192;7.024;2022-12-26T03:18:48;10.30;99.90
13405;DHT22;6773;51.192;7.024;2022-12-26T03:21:19;11.50;99.90
13405;DHT22;6773;51.192;7.024;2022-12-26T03:23:49;10.30;99.90
13405;DHT22;6773;51.192;7.024;2022-12-26T03:26:28;10.30;99.90
13405;DHT22;6773;51.192;7.024;2022-12-26T03:29:04;10.30;99.90
13405;DHT22;6773;51.192;7.024;2022-12-26T03:34:15;10.40;99.90
13405;DHT22;6773;51.192;7.024;2022-12-26T03:36:50;10.40;99.90
13405;DHT22;6773;51.192;7.024;2022-12-26T03:42:30;10.30;99.90
13405;DHT22;6773;51.192;7.024;2022-12-26T03:51:34;10.30;99.90
13405;DHT22;6773;51.192;7.024;2022-12-26T03:54:36;10.30;99.90
13405;DHT22;6773;51.192;7.024;2022-12-26T03:57:31;10.30;99.90
13405;DHT22;6773;51.192;7.024;2022-12-26T04:00:17;10.30;99.90
13405;DHT22;6773;51.192;7.024;2022-12-26T04:03:09;10.30;99.90
13405;DHT22;6773;51.192;7.024;2022-12-26T04:05:57;10.30;99.90
13405;DHT22;6773;51.192;7.024;2022-12-26T04:08:52;10.30;99.90
13405;DHT22;6773;51.192;7.024;2022-12-26T04:11:39;10.30;99.90
13405;DHT22;6773;51.192;7.024;2022-12-26T04:23:05;10.30;99.90
13405;DHT22;6773;51.192;7.024;2022-12-26T04:28:44;10.30;99.90
13405;DHT22;6773;51.192;7.024;2022-12-26T04:34:23;10.20;99.90
13405;DHT22;6773;51.192;7.024;2022-12-26T04:37:16;10.20;99.90
13405;DHT22;6773;51.192;7.024;2022-12-26T04:40:05;10.20;99.90
13405;DHT22;6773;51.192;7.024;2022-12-26T04:42:51;10.20;99.90
13405;DHT22;6773;51.192;7.024;2022-12-26T04:45:35;10.20;99.90
13405;DHT22;6773;51.192;7.024;2022-12-26T04:48:01;10.10;99.90
13405;DHT22;6773;51.192;7.024;2022-12-26T04:50:50;10.20;99.90
13405;DHT22;6773;51.192;7.024;2022-12-26T04:53:16;10.10;99.90
13405;DHT22;6773;51.192;7.024;2022-12-26T04:58:07;10.10;99.90
13405;DHT22;6773;51.192;7.024;2022-12-26T05:00:33;10.10;99.90
13405;DHT22;6773;51.192;7.024;2022-12-26T05:02:59;10.10;99.90
13405;DHT22;6773;51.192;7.024;2022-12-26T05:05:45;10.10;99.90
13405;DHT22;6773;51.192;7.024;2022-12-26T05:08:40;10.00;99.90
13405;DHT22;6773;51.192;7.024;2022-12-26T05:13:55;10.10;99.90
13405;DHT22;6773;51.192;7.024;2022-12-26T05:16:21;10.00;99.90
13405;DHT22;6773;51.192;7.024;2022-12-26T05:19:08;10.00;99.90
13405;DHT22;6773;51.192;7.024;2022-12-26T05:24:38;10.00;99.90
13405;DHT22;6773;51.192;7.024;2022-12-26T05:27:32;10.00;99.90
13405;DHT22;6773;51.192;7.024;2022-12-26T05:30:17;10.00;99.90
13405;DHT22;6773;51.192;7.024;2022-12-26T05:32:42;10.00;99.90
13405;DHT22;6773;51.192;7.024;2022-12-26T05:35:26;10.00;99.90
13405;DHT22;6773;51.192;7.024;2022-12-26T05:40:18;10.00;99.90
13405;DHT22;6773;51.192;7.024;2022-12-26T05:42:44;10.00;99.90
13405;DHT22;6773;51.192;7.024;2022-12-26T05:45:09;9.90;99.90
13405;DHT22;6773;51.192;7.024;2022-12-26T05:47:36;10.00;99.90
13405;DHT22;6773;51.192;7.024;2022-12-26T05:50:02;10.00;99.90
13405;DHT22;6773;51.192;7.024;2022-12-26T05:52:28;10.00;99.90
13405;DHT22;6773;51.192;7.024;2022-12-26T05:57:19;10.00;99.90
13405;DHT22;6773;51.192;7.024;2022-12-26T06:02:11;10.00;99.90
13405;DHT22;6773;51.192;7.024;2022-12-26T06:04:36;10.00;99.90
13405;DHT22;6773;51.192;7.024;2022-12-26T06:09:28;9.90;99.90
13405;DHT22;6773;51.192;7.024;2022-12-26T06:14:20;9.90;99.90
13405;DHT22;6773;51.192;7.024;2022-12-26T06:16:46;9.90;99.90
13405;DHT22;6773;51.192;7.024;2022-12-26T06:21:37;9.90;99.90
13405;DHT22;6773;51.192;7.024;2022-12-26T06:24:03;10.00;99.90
13405;DHT22;6773;51.192;7.024;2022-12-26T06:26:28;9.90;99.90
13405;DHT22;6773;51.192;7.024;2022-12-26T06:28:54;9.90;99.90
13405;DHT22;6773;51.192;7.024;2022-12-26T06:31:22;9.90;99.90
13405;DHT22;6773;51.192;7.024;2022-12-26T06:33:54;9.90;99.90
13405;DHT22;6773;51.192;7.024;2022-12-26T06:36:23;9.90;99.90
13405;DHT22;6773;51.192;7.024;2022-12-26T06:41:18;9.90;99.90
13405;DHT22;6773;51.192;7.024;2022-12-26T06:43:44;9.90;99.90
13405;DHT22;6773;51.192;7.024;2022-12-26T06:46:13;9.90;99.90
13405;DHT22;6773;51.192;7.024;2022-12-26T06:48:39;9.80;99.90
13405;DHT22;6773;51.192;7.024;2022-12-26T06:51:15;9.80;99.90
13405;DHT22;6773;51.192;7.024;2022-12-26T06:53:41;9.80;99.90
13405;DHT22;6773;51.192;7.024;2022-12-26T06:56:18;9.80;99.90
13405;DHT22;6773;51.192;7.024;2022-12-26T07:01:16;9.70;99.90
13405;DHT22;6773;51.192;7.024;2022-12-26T07:03:42;9.70;99.90
13405;DHT22;6773;51.192;7.024;2022-12-26T07:06:28;9.70;99.90
13405;DHT22;6773;51.192;7.024;2022-12-26T07:09:09;9.70;99.90
13405;DHT22;6773;51.192;7.024;2022-12-26T07:11:37;9.70;99.90
13405;DHT22;6773;51.192;7.024;2022-12-26T07:14:03;9.70;99.90
13405;DHT22;6773;51.192;7.024;2022-12-26T07:16:29;9.70;99.90
13405;DHT22;6773;51.192;7.024;2022-12-26T07:18:56;9.70;99.90
13405;DHT22;6773;51.192;7.024;2022-12-26T07:21:22;9.70;99.90
13405;DHT22;6773;51.192;7.024;2022-12-26T07:23:48;9.70;99.90
13405;DHT22;6773;51.192;7.024;2022-12-26T07:28:40;9.70;99.90
13405;DHT22;6773;51.192;7.024;2022-12-26T07:31:06;9.70;99.90
13405;DHT22;6773;51.192;7.024;2022-12-26T07:36:04;9.70;99.90
13405;DHT22;6773;51.192;7.024;2022-12-26T07:38:30;9.70;99.90
13405;DHT22;6773;51.192;7.024;2022-12-26T07:40:56;9.70;99.90
13405;DHT22;6773;51.192;7.024;2022-12-26T07:43:24;9.70;99.90
13405;DHT22;6773;51.192;7.024;2022-12-26T07:45:50;9.70;99.90
13405;DHT22;6773;51.192;7.024;2022-12-26T07:48:16;9.70;99.90
13405;DHT22;6773;51.192;7.024;2022-12-26T07:50:42;9.70;99.90
13405;DHT22;6773;51.192;7.024;2022-12-26T07:53:13;9.70;99.90
13405;DHT22;6773;51.192;7.024;2022-12-26T07:55:38;9.70;99.90
13405;DHT22;6773;51.192;7.024;2022-12-26T07:58:04;9.60;99.90
13405;DHT22;6773;51.192;7.024;2022-12-26T08:00:30;9.60;99.90
13405;DHT22;6773;51.192;7.024;2022-12-26T08:02:55;9.60;99.90
13405;DHT22;6773;51.192;7.024;2022-12-26T08:07:47;9.60;99.90
13405;DHT22;6773;51.192;7.024;2022-12-26T08:10:14;9.60;99.90
13405;DHT22;6773;51.192;7.024;2022-12-26T08:12:40;9.60;99.90
13405;DHT22;6773;51.192;7.024;2022-12-26T08:15:06;9.60;99.90
13405;DHT22;6773;51.192;7.024;2022-12-26T08:17:32;9.60;99.90
13405;DHT22;6773;51.192;7.024;2022-12-26T08:19:58;9.60;99.90
13405;DHT22;6773;51.192;7.024;2022-12-26T08:22:23;9.60;99.90
13405;DHT22;6773;51.192;7.024;2022-12-26T08:24:49;9.60;99.90
13405;DHT22;6773;51.192;7.024;2022-12-26T08:27:15;9.60;99.90
13405;DHT22;6773;51.192;7.024;2022-12-26T08:32:06;9.60;99.90
13405;DHT22;6773;51.192;7.024;2022-12-26T08:34:33;9.60;99.90
13405;DHT22;6773;51.192;7.024;2022-12-26T08:36:59;9.60;99.90
13405;DHT22;6773;51.192;7.024;2022-12-26T08:39:24;9.70;99.90
13405;DHT22;6773;51.192;7.024;2022-12-26T08:44:16;9.60;99.90
13405;DHT22;6773;51.192;7.024;2022-12-26T08:46:42;9.70;99.90
13405;DHT22;6773;51.192;7.024;2022-12-26T08:49:08;9.60;99.90
13405;DHT22;6773;51.192;7.024;2022-12-26T08:54:00;9.70;99.90
13405;DHT22;6773;51.192;7.024;2022-12-26T08:56:26;9.70;99.90
13405;DHT22;6773;51.192;7.024;2022-12-26T08:58:53;9.70;99.90
13405;DHT22;6773;51.192;7.024;2022-12-26T09:01:21;9.60;99.90
13405;DHT22;6773;51.192;7.024;2022-12-26T09:06:14;9.70;99.90
13405;DHT22;6773;51.192;7.024;2022-12-26T09:08:40;9.70;99.90
13405;DHT22;6773;51.192;7.024;2022-12-26T09:11:12;9.70;99.90
13405;DHT22;6773;51.192;7.024;2022-12-26T09:13:39;9.70;99.90
13405;DHT22;6773;51.192;7.024;2022-12-26T09:16:10;9.70;99.90
13405;DHT22;6773;51.192;7.024;2022-12-26T09:18:37;9.70;99.90
13405;DHT22;6773;51.192;7.024;2022-12-26T09:21:04;9.70;99.90
13405;DHT22;6773;51.192;7.024;2022-12-26T09:23:31;9.70;99.90
13405;DHT22;6773;51.192;7.024;2022-12-26T09:26:03;9.80;99.90
13405;DHT22;6773;51.192;7.024;2022-12-26T09:28:29;9.80;99.90
13405;DHT22;6773;51.192;7.024;2022-12-26T09:30:59;9.80;99.90
13405;DHT22;6773;51.192;7.024;2022-12-26T09:35:51;9.90;99.90
13405;DHT22;6773;51.192;7.024;2022-12-26T09:38:16;9.90;99.90
13405;DHT22;6773;51.192;7.024;2022-12-26T09:46:02;9.90;99.90
13405;DHT22;6773;51.192;7.024;2022-12-26T09:48:42;9.90;99.90
13405;DHT22;6773;51.192;7.024;2022-12-26T09:51:10;9.90;99.90
13405;DHT22;6773;51.192;7.024;2022-12-26T09:53:40;9.90;99.90
13405;DHT22;6773;51.192;7.024;2022-12-26T09:56:13;10.00;99.90
13405;DHT22;6773;51.192;7.024;2022-12-26T09:59:01;9.90;99.90
13405;DHT22;6773;51.192;7.024;2022-12-26T10:01:34;9.90;99.90
13405;DHT22;6773;51.192;7.024;2022-12-26T10:04:03;10.00;99.90
13405;DHT22;6773;51.192;7.024;2022-12-26T10:06:51;9.90;99.90
13405;DHT22;6773;51.192;7.024;2022-12-26T10:28:01;10.10;99.90
13405;DHT22;6773;51.192;7.024;2022-12-26T10:30:40;10.20;99.90
13405;DHT22;6773;51.192;7.024;2022-12-26T10:33:35;10.20;99.90
13405;DHT22;6773;51.192;7.024;2022-12-26T10:36:02;10.30;99.90
13405;DHT22;6773;51.192;7.024;2022-12-26T10:38:36;10.20;99.90
13405;DHT22;6773;51.192;7.024;2022-12-26T10:41:10;10.20;99.90
13405;DHT22;6773;51.192;7.024;2022-12-26T10:43:39;10.30;99.90
13405;DHT22;6773;51.192;7.024;2022-12-26T10:46:31;9.10;99.90
13405;DHT22;6773;51.192;7.024;2022-12-26T10:48:59;10.30;99.90
13405;DHT22;6773;51.192;7.024;2022-12-26T10:51:25;10.30;99.90
13405;DHT22;6773;51.192;7.024;2022-12-26T10:53:53;10.30;99.90
13405;DHT22;6773;51.192;7.024;2022-12-26T10:56:20;10.20;99.90
13405;DHT22;6773;51.192;7.024;2022-12-26T10:58:59;10.20;99.90
13405;DHT22;6773;51.192;7.024;2022-12-26T11:01:36;10.20;99.90
13405;DHT22;6773;51.192;7.024;2022-12-26T11:04:05;10.20;99.90
13405;DHT22;6773;51.192;7.024;2022-12-26T11:06:39;10.20;99.90
13405;DHT22;6773;51.192;7.024;2022-12-26T11:09:05;10.20;99.90
13405;DHT22;6773;51.192;7.024;2022-12-26T11:11:33;10.20;99.90
13405;DHT22;6773;51.192;7.024;2022-12-26T11:17:05;10.30;99.90
13405;DHT22;6773;51.192;7.024;2022-12-26T11:19:40;10.30;99.90
13405;DHT22;6773;51.192;7.024;2022-12-26T11:22:22;10.20;99.90
13405;DHT22;6773;51.192;7.024;2022-12-26T11:27:42;10.20;99.90
13405;DHT22;6773;51.192;7.024;2022-12-26T11:30:22;10.30;99.90
13405;DHT22;6773;51.192;7.024;2022-12-26T11:33:00;10.30;99.90
13405;DHT22;6773;51.192;7.024;2022-12-26T11:35:28;10.20;99.90
13405;DHT22;6773;51.192;7.024;2022-12-26T11:38:05;10.30;99.90
13405;DHT22;6773;51.192;7.024;2022-12-26T11:42:59;10.30;99.90
13405;DHT22;6773;51.192;7.024;2022-12-26T11:45:29;10.30;99.90
13405;DHT22;6773;51.192;7.024;2022-12-26T11:47:59;10.30;99.90
13405;DHT22;6773;51.192;7.024;2022-12-26T11:50:27;10.30;99.90
13405;DHT22;6773;51.192;7.024;2022-12-26T12:00:42;10.30;99.90
13405;DHT22;6773;51.192;7.024;2022-12-26T12:03:15;10.30;99.90
13405;DHT22;6773;51.192;7.024;2022-12-26T12:14:31;10.40;99.90
13405;DHT22;6773;51.192;7.024;2022-12-26T12:17:20;10.40;99.90
13405;DHT22;6773;51.192;7.024;2022-12-26T12:19:55;10.40;99.90
13405;DHT22;6773;51.192;7.024;2022-12-26T12:25:17;10.40;99.90
13405;DHT22;6773;51.192;7.024;2022-12-26T12:31:06;10.30;99.90
13405;DHT22;6773;51.192;7.024;2022-12-26T12:47:18;9.30;99.90
13405;DHT22;6773;51.192;7.024;2022-12-26T12:50:12;9.20;99.90
13405;DHT22;6773;51.192;7.024;2022-12-26T12:55:35;8.90;99.90
13405;DHT22;6773;51.192;7.024;2022-12-26T13:01:11;9.00;99.90
13405;DHT22;6773;51.192;7.024;2022-12-26T13:03:44;8.90;99.90
13405;DHT22;6773;51.192;7.024;2022-12-26T13:06:15;8.90;99.90
13405;DHT22;6773;51.192;7.024;2022-12-26T13:08:52;8.80;99.90
13405;DHT22;6773;51.192;7.024;2022-12-26T13:14:01;8.70;99.90
13405;DHT22;6773;51.192;7.024;2022-12-26T13:16:44;8.70;99.90
13405;DHT22;6773;51.192;7.024;2022-12-26T13:19:27;8.70;99.90
13405;DHT22;6773;51.192;7.024;2022-12-26T13:21:59;8.60;99.90
13405;DHT22;6773;51.192;7.024;2022-12-26T13:24:32;8.60;99.90
13405;DHT22;6773;51.192;7.024;2022-12-26T13:29:43;8.60;99.90
13405;DHT22;6773;51.192;7.024;2022-12-26T13:32:25;8.60;99.90
13405;DHT22;6773;51.192;7.024;2022-12-26T13:34:53;8.60;99.90
13405;DHT22;6773;51.192;7.024;2022-12-26T13:40:16;8.60;99.90
13405;DHT22;6773;51.192;7.024;2022-12-26T13:45:54;8.10;99.90
13405;DHT22;6773;51.192;7.024;2022-12-26T13:50:58;8.10;99.90
13405;DHT22;6773;51.192;7.024;2022-12-26T13:53:32;8.00;99.90
13405;DHT22;6773;51.192;7.024;2022-12-26T14:09:40;7.90;99.90
13405;DHT22;6773;51.192;7.024;2022-12-26T14:18:28;7.80;99.90
13405;DHT22;6773;51.192;7.024;2022-12-26T14:26:23;7.80;99.90
13405;DHT22;6773;51.192;7.024;2022-12-26T14:40:07;7.90;99.90
13405;DHT22;6773;51.192;7.024;2022-12-26T14:48:50;7.80;99.90
13405;DHT22;6773;51.192;7.024;2022-12-26T14:50:49;7.80;99.90
13405;DHT22;6773;51.192;7.024;2022-12-26T15:03:58;7.70;99.90
13405;DHT22;6773;51.192;7.024;2022-12-26T15:09:54;7.60;99.90
13405;DHT22;6773;51.192;7.024;2022-12-26T15:37:00;7.30;99.90
13405;DHT22;6773;51.192;7.024;2022-12-26T15:48:09;7.30;99.90
13405;DHT22;6773;51.192;7.024;2022-12-26T15:51:04;7.30;99.90
13405;DHT22;6773;51.192;7.024;2022-12-26T15:56:37;7.20;99.90
13405;DHT22;6773;51.192;7.024;2022-12-26T16:01:53;7.10;99.90
13405;DHT22;6773;51.192;7.024;2022-12-26T16:12:27;6.90;99.90
13405;DHT22;6773;51.192;7.024;2022-12-26T16:15:19;6.90;99.90
13405;DHT22;6773;51.192;7.024;2022-12-26T16:17:46;6.90;99.90
13405;DHT22;6773;51.192;7.024;2022-12-26T16:20:28;6.80;99.90
13405;DHT22;6773;51.192;7.024;2022-12-26T16:23:16;6.70;99.90
13405;DHT22;6773;51.192;7.024;2022-12-26T16:25:53;6.70;99.90
13405;DHT22;6773;51.192;7.024;2022-12-26T16:28:24;6.80;99.90
13405;DHT22;6773;51.192;7.024;2022-12-26T16:30:50;6.70;99.90
13405;DHT22;6773;51.192;7.024;2022-12-26T16:33:16;6.70;99.90
13405;DHT22;6773;51.192;7.024;2022-12-26T16:35:42;6.60;99.90
13405;DHT22;6773;51.192;7.024;2022-12-26T16:38:17;6.60;99.90
13405;DHT22;6773;51.192;7.024;2022-12-26T16:40:48;6.50;99.90
13405;DHT22;6773;51.192;7.024;2022-12-26T16:45:45;6.50;99.90
13405;DHT22;6773;51.192;7.024;2022-12-26T16:48:15;6.50;99.90
13405;DHT22;6773;51.192;7.024;2022-12-26T16:50:59;6.50;99.90
13405;DHT22;6773;51.192;7.024;2022-12-26T16:56:25;6.40;99.90
13405;DHT22;6773;51.192;7.024;2022-12-26T17:01:30;6.30;99.90
13405;DHT22;6773;51.192;7.024;2022-12-26T17:04:17;6.30;99.90
13405;DHT22;6773;51.192;7.024;2022-12-26T17:09:17;6.30;99.90
13405;DHT22;6773;51.192;7.024;2022-12-26T17:11:58;6.20;99.90
13405;DHT22;6773;51.192;7.024;2022-12-26T17:14:41;6.20;99.90
13405;DHT22;6773;51.192;7.024;2022-12-26T17:19:54;6.10;99.90
13405;DHT22;6773;51.192;7.024;2022-12-26T17:22:27;6.10;99.90
13405;DHT22;6773;51.192;7.024;2022-12-26T17:27:42;5.80;99.90
13405;DHT22;6773;51.192;7.024;2022-12-26T17:30:30;5.80;99.90
13405;DHT22;6773;51.192;7.024;2022-12-26T17:38:08;5.50;99.90
13405;DHT22;6773;51.192;7.024;2022-12-26T17:40:37;5.50;99.90
13405;DHT22;6773;51.192;7.024;2022-12-26T17:45:37;5.40;99.90
13405;DHT22;6773;51.192;7.024;2022-12-26T17:48:03;5.30;99.90
13405;DHT22;6773;51.192;7.024;2022-12-26T17:50:32;5.20;99.90
13405;DHT22;6773;51.192;7.024;2022-12-26T17:55:47;5.00;99.90
13405;DHT22;6773;51.192;7.024;2022-12-26T17:58:13;5.00;99.90
13405;DHT22;6773;51.192;7.024;2022-12-26T18:00:39;4.90;99.90
13405;DHT22;6773;51.192;7.024;2022-12-26T18:03:05;4.90;99.90
13405;DHT22;6773;51.192;7.024;2022-12-26T18:05:32;4.80;99.90
13405;DHT22;6773;51.192;7.024;2022-12-26T18:07:58;4.80;99.90
13405;DHT22;6773;51.192;7.024;2022-12-26T18:10:33;4.80;99.90
13405;DHT22;6773;51.192;7.024;2022-12-26T18:13:00;4.70;99.90
13405;DHT22;6773;51.192;7.024;2022-12-26T18:15:27;4.60;99.90
13405;DHT22;6773;51.192;7.024;2022-12-26T18:17:53;4.60;99.90
13405;DHT22;6773;51.192;7.024;2022-12-26T18:20:25;4.50;99.90
13405;DHT22;6773;51.192;7.024;2022-12-26T18:22:52;4.50;99.90
13405;DHT22;6773;51.192;7.024;2022-12-26T18:25:20;4.40;99.90
13405;DHT22;6773;51.192;7.024;2022-12-26T18:30:18;4.30;99.90
13405;DHT22;6773;51.192;7.024;2022-12-26T18:32:46;4.30;99.90
13405;DHT22;6773;51.192;7.024;2022-12-26T18:35:13;4.20;99.90
13405;DHT22;6773;51.192;7.024;2022-12-26T18:37:46;4.30;99.90
13405;DHT22;6773;51.192;7.024;2022-12-26T18:40:41;4.20;99.90
13405;DHT22;6773;51.192;7.024;2022-12-26T18:43:08;4.10;99.90
13405;DHT22;6773;51.192;7.024;2022-12-26T18:45:35;4.00;99.90
13405;DHT22;6773;51.192;7.024;2022-12-26T18:50:29;4.00;99.90
13405;DHT22;6773;51.192;7.024;2022-12-26T18:55:21;4.00;99.90
13405;DHT22;6773;51.192;7.024;2022-12-26T18:57:47;3.90;99.90
13405;DHT22;6773;51.192;7.024;2022-12-26T19:00:15;3.90;99.90
13405;DHT22;6773;51.192;7.024;2022-12-26T19:02:42;3.90;99.90
13405;DHT22;6773;51.192;7.024;2022-12-26T19:05:16;3.80;99.90
13405;DHT22;6773;51.192;7.024;2022-12-26T19:07:43;3.80;99.90
13405;DHT22;6773;51.192;7.024;2022-12-26T19:10:10;3.70;99.90
13405;DHT22;6773;51.192;7.024;2022-12-26T19:12:35;3.80;99.90
13405;DHT22;6773;51.192;7.024;2022-12-26T19:24:45;3.60;99.90
13405;DHT22;6773;51.192;7.024;2022-12-26T19:27:11;3.50;99.90
13405;DHT22;6773;51.192;7.024;2022-12-26T19:29:36;6.00;99.90
13405;DHT22;6773;51.192;7.024;2022-12-26T19:32:02;3.50;99.90
13405;DHT22;6773;51.192;7.024;2022-12-26T19:34:28;3.50;99.90
13405;DHT22;6773;51.192;7.024;2022-12-26T19:36:54;3.50;99.90
13405;DHT22;6773;51.192;7.024;2022-12-26T19:41:46;3.50;99.90
13405;DHT22;6773;51.192;7.024;2022-12-26T19:44:11;3.40;99.90
13405;DHT22;6773;51.192;7.024;2022-12-26T19:46:37;3.40;99.90
13405;DHT22;6773;51.192;7.024;2022-12-26T19:53:55;3.30;99.90
13405;DHT22;6773;51.192;7.024;2022-12-26T19:56:25;3.30;99.90
13405;DHT22;6773;51.192;7.024;2022-12-26T19:58:51;3.20;99.90
13405;DHT22;6773;51.192;7.024;2022-12-26T20:01:19;3.20;99.90
13405;DHT22;6773;51.192;7.024;2022-12-26T20:03:45;3.30;99.90
13405;DHT22;6773;51.192;7.024;2022-12-26T20:06:18;3.20;99.90
13405;DHT22;6773;51.192;7.024;2022-12-26T20:08:45;3.20;99.90
13405;DHT22;6773;51.192;7.024;2022-12-26T20:11:17;3.20;99.90
13405;DHT22;6773;51.192;7.024;2022-12-26T20:13:43;3.10;99.90
13405;DHT22;6773;51.192;7.024;2022-12-26T20:16:12;3.20;99.90
13405;DHT22;6773;51.192;7.024;2022-12-26T20:21:05;3.10;99.90
13405;DHT22;6773;51.192;7.024;2022-12-26T20:23:32;2.30;99.90
13405;DHT22;6773;51.192;7.024;2022-12-26T20:26:03;3.00;99.90
13405;DHT22;6773;51.192;7.024;2022-12-26T20:28:31;3.00;99.90
13405;DHT22;6773;51.192;7.024;2022-12-26T20:31:02;3.00;99.90
13405;DHT22;6773;51.192;7.024;2022-12-26T20:33:29;2.90;99.90
13405;DHT22;6773;51.192;7.024;2022-12-26T20:36:07;2.90;99.90
13405;DHT22;6773;51.192;7.024;2022-12-26T20:38:33;2.90;99.90
13405;DHT22;6773;51.192;7.024;2022-12-26T20:43:25;2.90;99.90
13405;DHT22;6773;51.192;7.024;2022-12-26T20:45:51;2.90;99.90
13405;DHT22;6773;51.192;7.024;2022-12-26T20:50:54;3.00;99.90
13405;DHT22;6773;51.192;7.024;2022-12-26T20:53:20;3.00;99.90
13405;DHT22;6773;51.192;7.024;2022-12-26T20:55:49;2.90;99.90
13405;DHT22;6773;51.192;7.024;2022-12-26T20:58:15;3.00;99.90
13405;DHT22;6773;51.192;7.024;2022-12-26T21:03:10;2.90;99.90
13405;DHT22;6773;51.192;7.024;2022-12-26T21:08:02;2.90;99.90
13405;DHT22;6773;51.192;7.024;2022-12-26T21:12:54;2.80;99.90
13405;DHT22;6773;51.192;7.024;2022-12-26T21:15:20;2.80;99.90
13405;DHT22;6773;51.192;7.024;2022-12-26T21:17:46;2.80;99.90
13405;DHT22;6773;51.192;7.024;2022-12-26T21:20:12;2.80;99.90
13405;DHT22;6773;51.192;7.024;2022-12-26T21:22:39;2.90;99.90
13405;DHT22;6773;51.192;7.024;2022-12-26T21:25:06;2.90;99.90
13405;DHT22;6773;51.192;7.024;2022-12-26T21:27:32;2.80;99.90
13405;DHT22;6773;51.192;7.024;2022-12-26T21:29:58;2.90;99.90
13405;DHT22;6773;51.192;7.024;2022-12-26T21:32:23;2.90;99.90
13405;DHT22;6773;51.192;7.024;2022-12-26T21:37:15;3.00;99.90
13405;DHT22;6773;51.192;7.024;2022-12-26T21:40:21;2.90;99.90
13405;DHT22;6773;51.192;7.024;2022-12-26T21:42:48;3.00;99.90
13405;DHT22;6773;51.192;7.024;2022-12-26T21:45:14;3.00;99.90
13405;DHT22;6773;51.192;7.024;2022-12-26T21:47:40;3.00;99.90
13405;DHT22;6773;51.192;7.024;2022-12-26T21:50:06;3.00;99.90
13405;DHT22;6773;51.192;7.024;2022-12-26T21:52:32;3.00;99.90
13405;DHT22;6773;51.192;7.024;2022-12-26T21:54:58;3.10;99.90
13405;DHT22;6773;51.192;7.024;2022-12-26T21:57:42;3.10;99.90
13405;DHT22;6773;51.192;7.024;2022-12-26T22:00:08;3.10;99.90
13405;DHT22;6773;51.192;7.024;2022-12-26T22:02:36;3.10;99.90
13405;DHT22;6773;51.192;7.024;2022-12-26T22:05:23;3.20;99.90
13405;DHT22;6773;51.192;7.024;2022-12-26T22:07:55;3.10;99.90
13405;DHT22;6773;51.192;7.024;2022-12-26T22:10:22;3.20;99.90
13405;DHT22;6773;51.192;7.024;2022-12-26T22:13:07;3.20;99.90
13405;DHT22;6773;51.192;7.024;2022-12-26T22:18:18;3.20;99.90
13405;DHT22;6773;51.192;7.024;2022-12-26T22:20:44;3.20;99.90
13405;DHT22;6773;51.192;7.024;2022-12-26T22:23:11;3.20;99.90
13405;DHT22;6773;51.192;7.024;2022-12-26T22:25:37;3.00;99.90
13405;DHT22;6773;51.192;7.024;2022-12-26T22:28:03;3.10;99.90
13405;DHT22;6773;51.192;7.024;2022-12-26T22:30:28;3.10;99.90
13405;DHT22;6773;51.192;7.024;2022-12-26T22:32:54;3.10;99.90
13405;DHT22;6773;51.192;7.024;2022-12-26T22:35:20;3.10;99.90
13405;DHT22;6773;51.192;7.024;2022-12-26T22:37:46;3.10;99.90
13405;DHT22;6773;51.192;7.024;2022-12-26T22:42:37;3.10;99.90
13405;DHT22;6773;51.192;7.024;2022-12-26T22:45:03;3.10;99.90